sensor_id;sensor_type;location;lat;lon;timestamp;temperature;humidity
65752;DHT22;52486;51.098;13.770;2024-01-30T00:01:10;25.20;55.40
65752;DHT22;52486;51.098;13.770;2024-01-30T00:03:36;23.20;54.00
65752;DHT22;52486;51.098;13.770;2024-01-30T00:06:02;23.40;54.10
65752;DHT22;52486;51.098;13.770;2024-01-30T00:08:28;23.30;54.10
65752;DHT22;52486;51.098;13.770;2024-01-30T00:10:54;23.50;54.30
65752;DHT22;52486;51.098;13.770;2024-01-30T00:13:19;23.30;54.30
65752;DHT22;52486;51.098;13.770;2024-01-30T00:15:45;23.40;53.80
65752;DHT22;52486;51.098;13.770;2024-01-30T00:18:10;23.50;54.30
65752;DHT22;52486;51.098;13.770;2024-01-30T00:20:36;23.80;54.40
65752;DHT22;52486;51.098;13.770;2024-01-30T00:23:01;23.40;54.10
65752;DHT22;52486;51.098;13.770;2024-01-30T00:25:27;23.60;54.20
65752;DHT22;52486;51.098;13.770;2024-01-30T00:27:52;25.40;55.30
65752;DHT22;52486;51.098;13.770;2024-01-30T00:30:18;23.50;54.10
65752;DHT22;52486;51.098;13.770;2024-01-30T00:32:43;23.40;54.00
65752;DHT22;52486;51.098;13.770;2024-01-30T00:35:09;23.60;54.20
65752;DHT22;52486;51.098;13.770;2024-01-30T00:37:35;23.50;53.90
65752;DHT22;52486;51.098;13.770;2024-01-30T00:40:01;23.40;54.10
65752;DHT22;52486;51.098;13.770;2024-01-30T00:42:27;23.80;54.20
65752;DHT22;52486;51.098;13.770;2024-01-30T00:44:52;25.00;55.00
65752;DHT22;52486;51.098;13.770;2024-01-30T00:47:18;23.60;54.20
65752;DHT22;52486;51.098;13.770;2024-01-30T00:49:43;23.60;54.20
65752;DHT22;52486;51.098;13.770;2024-01-30T00:52:09;23.70;54.30
65752;DHT22;52486;51.098;13.770;2024-01-30T00:54:34;23.40;54.20
65752;DHT22;52486;51.098;13.770;2024-01-30T00:57:00;23.50;54.20
65752;DHT22;52486;51.098;13.770;2024-01-30T00:59:25;23.70;54.30
65752;DHT22;52486;51.098;13.770;2024-01-30T01:01:51;23.70;54.30
65752;DHT22;52486;51.098;13.770;2024-01-30T01:04:16;23.70;54.10
65752;DHT22;52486;51.098;13.770;2024-01-30T01:06:42;23.60;54.10
65752;DHT22;52486;51.098;13.770;2024-01-30T01:09:10;23.80;54.20
65752;DHT22;52486;51.098;13.770;2024-01-30T01:11:36;25.70;55.40
65752;DHT22;52486;51.098;13.770;2024-01-30T01:14:03;23.70;54.20
65752;DHT22;52486;51.098;13.770;2024-01-30T01:16:28;23.70;54.30
65752;DHT22;52486;51.098;13.770;2024-01-30T01:18:54;23.60;54.30
65752;DHT22;52486;51.098;13.770;2024-01-30T01:21:19;23.70;54.30
65752;DHT22;52486;51.098;13.770;2024-01-30T01:23:45;23.60;54.30
65752;DHT22;52486;51.098;13.770;2024-01-30T01:26:10;26.10;55.50
65752;DHT22;52486;51.098;13.770;2024-01-30T01:28:36;25.80;55.60
65752;DHT22;52486;51.098;13.770;2024-01-30T01:31:01;24.40;54.60
65752;DHT22;52486;51.098;13.770;2024-01-30T01:33:31;23.60;54.00
65752;DHT22;52486;51.098;13.770;2024-01-30T01:35:58;26.40;55.90
65752;DHT22;52486;51.098;13.770;2024-01-30T01:38:23;23.80;54.30
65752;DHT22;52486;51.098;13.770;2024-01-30T01:40:49;26.80;56.30
65752;DHT22;52486;51.098;13.770;2024-01-30T01:43:14;24.20;54.60
65752;DHT22;52486;51.098;13.770;2024-01-30T01:45:40;23.70;54.30
65752;DHT22;52486;51.098;13.770;2024-01-30T01:48:05;23.70;53.70
65752;DHT22;52486;51.098;13.770;2024-01-30T01:50:32;23.70;53.60
65752;DHT22;52486;51.098;13.770;2024-01-30T01:52:57;23.60;54.10
65752;DHT22;52486;51.098;13.770;2024-01-30T01:55:24;23.70;54.20
65752;DHT22;52486;51.098;13.770;2024-01-30T01:57:52;23.70;54.20
65752;DHT22;52486;51.098;13.770;2024-01-30T02:00:18;23.50;54.20
65752;DHT22;52486;51.098;13.770;2024-01-30T02:02:45;23.60;54.00
65752;DHT22;52486;51.098;13.770;2024-01-30T02:05:10;23.60;54.30
65752;DHT22;52486;51.098;13.770;2024-01-30T02:07:36;24.30;54.70
65752;DHT22;52486;51.098;13.770;2024-01-30T02:10:02;26.40;55.90
65752;DHT22;52486;51.098;13.770;2024-01-30T02:12:29;23.80;53.50
65752;DHT22;52486;51.098;13.770;2024-01-30T02:14:55;23.80;54.20
65752;DHT22;52486;51.098;13.770;2024-01-30T02:17:20;24.50;54.70
65752;DHT22;52486;51.098;13.770;2024-01-30T02:19:46;23.70;54.40
65752;DHT22;52486;51.098;13.770;2024-01-30T02:22:11;23.40;54.30
65752;DHT22;52486;51.098;13.770;2024-01-30T02:24:38;23.50;54.20
65752;DHT22;52486;51.098;13.770;2024-01-30T02:27:03;23.80;54.40
65752;DHT22;52486;51.098;13.770;2024-01-30T02:29:29;23.70;54.10
65752;DHT22;52486;51.098;13.770;2024-01-30T02:31:54;26.00;55.80
65752;DHT22;52486;51.098;13.770;2024-01-30T02:34:20;23.90;54.60
65752;DHT22;52486;51.098;13.770;2024-01-30T02:36:46;25.00;55.10
65752;DHT22;52486;51.098;13.770;2024-01-30T02:39:11;23.60;53.80
65752;DHT22;52486;51.098;13.770;2024-01-30T02:41:37;23.80;54.60
65752;DHT22;52486;51.098;13.770;2024-01-30T02:44:03;23.70;54.50
65752;DHT22;52486;51.098;13.770;2024-01-30T02:46:30;23.70;53.80
65752;DHT22;52486;51.098;13.770;2024-01-30T02:48:55;23.70;52.20
65752;DHT22;52486;51.098;13.770;2024-01-30T02:51:21;23.90;54.40
65752;DHT22;52486;51.098;13.770;2024-01-30T02:53:46;24.30;54.80
65752;DHT22;52486;51.098;13.770;2024-01-30T02:56:12;23.80;54.50
65752;DHT22;52486;51.098;13.770;2024-01-30T02:58:39;24.00;54.50
65752;DHT22;52486;51.098;13.770;2024-01-30T03:01:05;23.90;54.50
65752;DHT22;52486;51.098;13.770;2024-01-30T03:03:30;23.60;53.80
65752;DHT22;52486;51.098;13.770;2024-01-30T03:05:56;26.60;56.30
65752;DHT22;52486;51.098;13.770;2024-01-30T03:08:21;23.90;54.70
65752;DHT22;52486;51.098;13.770;2024-01-30T03:10:47;24.00;54.60
65752;DHT22;52486;51.098;13.770;2024-01-30T03:13:12;23.70;54.40
65752;DHT22;52486;51.098;13.770;2024-01-30T03:15:38;23.60;54.60
65752;DHT22;52486;51.098;13.770;2024-01-30T03:18:03;23.70;54.60
65752;DHT22;52486;51.098;13.770;2024-01-30T03:20:29;24.00;54.30
65752;DHT22;52486;51.098;13.770;2024-01-30T03:22:55;23.60;54.30
65752;DHT22;52486;51.098;13.770;2024-01-30T03:25:20;25.00;55.10
65752;DHT22;52486;51.098;13.770;2024-01-30T03:27:46;24.60;55.20
65752;DHT22;52486;51.098;13.770;2024-01-30T03:30:11;23.90;54.80
65752;DHT22;52486;51.098;13.770;2024-01-30T03:32:37;23.70;54.60
65752;DHT22;52486;51.098;13.770;2024-01-30T03:35:02;23.90;54.70
65752;DHT22;52486;51.098;13.770;2024-01-30T03:37:28;23.80;54.50
65752;DHT22;52486;51.098;13.770;2024-01-30T03:39:53;23.70;54.70
65752;DHT22;52486;51.098;13.770;2024-01-30T03:42:19;25.30;55.70
65752;DHT22;52486;51.098;13.770;2024-01-30T03:44:44;23.80;54.40
65752;DHT22;52486;51.098;13.770;2024-01-30T03:47:10;24.10;55.00
65752;DHT22;52486;51.098;13.770;2024-01-30T03:49:35;24.40;55.00
65752;DHT22;52486;51.098;13.770;2024-01-30T03:52:01;24.00;54.90
65752;DHT22;52486;51.098;13.770;2024-01-30T03:54:26;23.90;54.80
65752;DHT22;52486;51.098;13.770;2024-01-30T03:56:52;24.10;55.00
65752;DHT22;52486;51.098;13.770;2024-01-30T03:59:17;23.90;54.80
65752;DHT22;52486;51.098;13.770;2024-01-30T04:01:47;23.70;54.50
65752;DHT22;52486;51.098;13.770;2024-01-30T04:04:13;23.90;54.90
65752;DHT22;52486;51.098;13.770;2024-01-30T04:06:38;23.70;54.80
65752;DHT22;52486;51.098;13.770;2024-01-30T04:09:04;23.90;54.90
65752;DHT22;52486;51.098;13.770;2024-01-30T04:11:29;23.70;54.70
65752;DHT22;52486;51.098;13.770;2024-01-30T04:13:55;25.80;56.00
65752;DHT22;52486;51.098;13.770;2024-01-30T04:16:20;24.50;55.20
65752;DHT22;52486;51.098;13.770;2024-01-30T04:18:47;23.90;54.80
65752;DHT22;52486;51.098;13.770;2024-01-30T04:21:13;25.00;55.50
65752;DHT22;52486;51.098;13.770;2024-01-30T04:23:39;24.60;55.40
65752;DHT22;52486;51.098;13.770;2024-01-30T04:26:04;23.90;54.80
65752;DHT22;52486;51.098;13.770;2024-01-30T04:28:30;24.60;55.30
65752;DHT22;52486;51.098;13.770;2024-01-30T04:30:55;24.00;55.10
65752;DHT22;52486;51.098;13.770;2024-01-30T04:33:21;23.90;55.00
65752;DHT22;52486;51.098;13.770;2024-01-30T04:35:46;24.60;55.40
65752;DHT22;52486;51.098;13.770;2024-01-30T04:38:12;26.20;56.40
65752;DHT22;52486;51.098;13.770;2024-01-30T04:40:39;23.90;54.80
65752;DHT22;52486;51.098;13.770;2024-01-30T04:43:04;23.80;54.90
65752;DHT22;52486;51.098;13.770;2024-01-30T04:45:30;24.10;55.10
65752;DHT22;52486;51.098;13.770;2024-01-30T04:47:55;23.90;55.00
65752;DHT22;52486;51.098;13.770;2024-01-30T04:50:21;23.90;55.00
65752;DHT22;52486;51.098;13.770;2024-01-30T04:52:46;23.90;55.00
65752;DHT22;52486;51.098;13.770;2024-01-30T04:55:11;23.90;55.00
65752;DHT22;52486;51.098;13.770;2024-01-30T04:57:38;24.00;55.10
65752;DHT22;52486;51.098;13.770;2024-01-30T05:00:03;24.10;52.70
65752;DHT22;52486;51.098;13.770;2024-01-30T05:02:30;24.00;54.40
65752;DHT22;52486;51.098;13.770;2024-01-30T05:04:56;23.90;55.00
65752;DHT22;52486;51.098;13.770;2024-01-30T05:07:21;24.00;55.20
65752;DHT22;52486;51.098;13.770;2024-01-30T05:09:47;23.80;55.10
65752;DHT22;52486;51.098;13.770;2024-01-30T05:12:13;25.10;55.50
65752;DHT22;52486;51.098;13.770;2024-01-30T05:14:38;23.70;55.10
65752;DHT22;52486;51.098;13.770;2024-01-30T05:17:04;23.80;55.00
65752;DHT22;52486;51.098;13.770;2024-01-30T05:19:29;25.30;55.90
65752;DHT22;52486;51.098;13.770;2024-01-30T05:21:55;23.80;54.10
65752;DHT22;52486;51.098;13.770;2024-01-30T05:24:20;22.80;51.90
65752;DHT22;52486;51.098;13.770;2024-01-30T05:26:46;23.20;53.70
65752;DHT22;52486;51.098;13.770;2024-01-30T05:29:12;21.00;54.60
65752;DHT22;52486;51.098;13.770;2024-01-30T05:31:38;19.80;55.80
65752;DHT22;52486;51.098;13.770;2024-01-30T05:34:03;19.00;55.90
65752;DHT22;52486;51.098;13.770;2024-01-30T05:36:29;18.60;56.80
65752;DHT22;52486;51.098;13.770;2024-01-30T05:38:56;20.10;58.90
65752;DHT22;52486;51.098;13.770;2024-01-30T05:41:21;18.40;56.10
65752;DHT22;52486;51.098;13.770;2024-01-30T05:43:47;18.50;57.70
65752;DHT22;52486;51.098;13.770;2024-01-30T05:46:13;18.10;59.00
65752;DHT22;52486;51.098;13.770;2024-01-30T05:48:39;17.80;58.60
65752;DHT22;52486;51.098;13.770;2024-01-30T05:51:04;18.00;59.80
65752;DHT22;52486;51.098;13.770;2024-01-30T05:53:30;17.80;61.10
65752;DHT22;52486;51.098;13.770;2024-01-30T05:55:55;18.00;61.70
65752;DHT22;52486;51.098;13.770;2024-01-30T05:58:21;18.40;61.40
65752;DHT22;52486;51.098;13.770;2024-01-30T06:00:47;18.80;61.10
65752;DHT22;52486;51.098;13.770;2024-01-30T06:03:12;19.20;60.80
65752;DHT22;52486;51.098;13.770;2024-01-30T06:05:38;19.60;59.80
65752;DHT22;52486;51.098;13.770;2024-01-30T06:08:03;19.90;59.50
65752;DHT22;52486;51.098;13.770;2024-01-30T06:10:29;20.10;59.10
65752;DHT22;52486;51.098;13.770;2024-01-30T06:12:54;20.30;59.60
65752;DHT22;52486;51.098;13.770;2024-01-30T06:15:20;20.50;59.50
65752;DHT22;52486;51.098;13.770;2024-01-30T06:17:46;20.80;59.10
65752;DHT22;52486;51.098;13.770;2024-01-30T06:20:11;22.30;60.20
65752;DHT22;52486;51.098;13.770;2024-01-30T06:22:37;20.80;59.10
65752;DHT22;52486;51.098;13.770;2024-01-30T06:25:02;21.10;58.80
65752;DHT22;52486;51.098;13.770;2024-01-30T06:27:28;21.10;58.90
65752;DHT22;52486;51.098;13.770;2024-01-30T06:29:53;21.30;59.30
65752;DHT22;52486;51.098;13.770;2024-01-30T06:32:19;21.30;58.90
65752;DHT22;52486;51.098;13.770;2024-01-30T06:34:44;21.40;58.60
65752;DHT22;52486;51.098;13.770;2024-01-30T06:37:10;21.50;58.30
65752;DHT22;52486;51.098;13.770;2024-01-30T06:39:36;21.80;59.00
65752;DHT22;52486;51.098;13.770;2024-01-30T06:42:01;21.60;58.50
65752;DHT22;52486;51.098;13.770;2024-01-30T06:44:27;21.80;58.80
65752;DHT22;52486;51.098;13.770;2024-01-30T06:46:53;21.70;58.80
65752;DHT22;52486;51.098;13.770;2024-01-30T06:49:19;21.70;58.50
65752;DHT22;52486;51.098;13.770;2024-01-30T06:51:44;23.80;60.20
65752;DHT22;52486;51.098;13.770;2024-01-30T06:54:10;22.70;59.50
65752;DHT22;52486;51.098;13.770;2024-01-30T06:56:35;23.90;60.20
65752;DHT22;52486;51.098;13.770;2024-01-30T06:59:01;24.30;60.50
65752;DHT22;52486;51.098;13.770;2024-01-30T07:01:29;24.20;60.30
65752;DHT22;52486;51.098;13.770;2024-01-30T07:03:55;22.20;56.80
65752;DHT22;52486;51.098;13.770;2024-01-30T07:06:21;22.00;58.70
65752;DHT22;52486;51.098;13.770;2024-01-30T07:08:47;22.10;58.70
65752;DHT22;52486;51.098;13.770;2024-01-30T07:11:19;22.50;58.90
65752;DHT22;52486;51.098;13.770;2024-01-30T07:13:46;22.30;56.10
65752;DHT22;52486;51.098;13.770;2024-01-30T07:16:12;22.30;58.20
65752;DHT22;52486;51.098;13.770;2024-01-30T07:18:38;22.40;58.40
65752;DHT22;52486;51.098;13.770;2024-01-30T07:21:03;22.40;58.80
65752;DHT22;52486;51.098;13.770;2024-01-30T07:23:29;22.50;58.40
65752;DHT22;52486;51.098;13.770;2024-01-30T07:25:56;22.50;58.40
65752;DHT22;52486;51.098;13.770;2024-01-30T07:28:21;22.50;56.00
65752;DHT22;52486;51.098;13.770;2024-01-30T07:30:47;22.40;58.20
65752;DHT22;52486;51.098;13.770;2024-01-30T07:33:13;24.00;58.70
65752;DHT22;52486;51.098;13.770;2024-01-30T07:35:39;23.00;57.50
65752;DHT22;52486;51.098;13.770;2024-01-30T07:38:04;23.00;58.00
65752;DHT22;52486;51.098;13.770;2024-01-30T07:40:30;25.30;59.10
65752;DHT22;52486;51.098;13.770;2024-01-30T07:42:55;24.10;58.40
65752;DHT22;52486;51.098;13.770;2024-01-30T07:45:22;22.80;57.50
65752;DHT22;52486;51.098;13.770;2024-01-30T07:47:49;22.90;55.00
65752;DHT22;52486;51.098;13.770;2024-01-30T07:50:15;24.00;58.00
65752;DHT22;52486;51.098;13.770;2024-01-30T07:52:40;22.90;57.10
65752;DHT22;52486;51.098;13.770;2024-01-30T07:55:06;23.00;57.30
65752;DHT22;52486;51.098;13.770;2024-01-30T07:57:33;22.80;56.60
65752;DHT22;52486;51.098;13.770;2024-01-30T07:59:59;23.40;57.10
65752;DHT22;52486;51.098;13.770;2024-01-30T08:02:26;23.20;55.80
65752;DHT22;52486;51.098;13.770;2024-01-30T08:04:51;21.90;50.30
65752;DHT22;52486;51.098;13.770;2024-01-30T08:07:17;20.80;54.50
65752;DHT22;52486;51.098;13.770;2024-01-30T08:09:43;19.70;55.40
65752;DHT22;52486;51.098;13.770;2024-01-30T08:12:08;19.80;57.30
65752;DHT22;52486;51.098;13.770;2024-01-30T08:14:34;19.40;57.20
65752;DHT22;52486;51.098;13.770;2024-01-30T08:16:59;19.30;56.80
65752;DHT22;52486;51.098;13.770;2024-01-30T08:19:25;20.00;56.50
65752;DHT22;52486;51.098;13.770;2024-01-30T08:21:52;20.00;57.70
65752;DHT22;52486;51.098;13.770;2024-01-30T08:24:17;20.40;55.30
65752;DHT22;52486;51.098;13.770;2024-01-30T08:26:43;20.60;57.10
65752;DHT22;52486;51.098;13.770;2024-01-30T08:29:08;21.10;58.00
65752;DHT22;52486;51.098;13.770;2024-01-30T08:31:34;21.30;57.20
65752;DHT22;52486;51.098;13.770;2024-01-30T08:34:00;21.40;57.20
65752;DHT22;52486;51.098;13.770;2024-01-30T08:36:25;21.40;56.90
65752;DHT22;52486;51.098;13.770;2024-01-30T08:38:51;23.40;58.70
65752;DHT22;52486;51.098;13.770;2024-01-30T08:41:16;21.70;57.50
65752;DHT22;52486;51.098;13.770;2024-01-30T08:43:42;21.50;57.30
65752;DHT22;52486;51.098;13.770;2024-01-30T08:46:07;23.80;58.20
65752;DHT22;52486;51.098;13.770;2024-01-30T08:48:33;24.90;58.30
65752;DHT22;52486;51.098;13.770;2024-01-30T08:50:58;22.20;56.00
65752;DHT22;52486;51.098;13.770;2024-01-30T08:53:24;24.40;57.60
65752;DHT22;52486;51.098;13.770;2024-01-30T08:55:50;25.10;57.90
65752;DHT22;52486;51.098;13.770;2024-01-30T08:58:15;24.90;57.40
65752;DHT22;52486;51.098;13.770;2024-01-30T09:00:43;25.90;57.70
65752;DHT22;52486;51.098;13.770;2024-01-30T09:03:09;22.70;55.90
65752;DHT22;52486;51.098;13.770;2024-01-30T09:05:34;22.80;55.00
65752;DHT22;52486;51.098;13.770;2024-01-30T09:08:00;23.30;55.90
65752;DHT22;52486;51.098;13.770;2024-01-30T09:10:25;25.80;57.20
65752;DHT22;52486;51.098;13.770;2024-01-30T09:12:51;24.00;55.80
65752;DHT22;52486;51.098;13.770;2024-01-30T09:15:17;23.20;55.00
65752;DHT22;52486;51.098;13.770;2024-01-30T09:17:44;26.30;55.90
65752;DHT22;52486;51.098;13.770;2024-01-30T09:20:09;23.60;54.20
65752;DHT22;52486;51.098;13.770;2024-01-30T09:22:35;23.20;52.80
65752;DHT22;52486;51.098;13.770;2024-01-30T09:25:01;23.10;53.40
65752;DHT22;52486;51.098;13.770;2024-01-30T09:27:26;23.10;52.80
65752;DHT22;52486;51.098;13.770;2024-01-30T09:29:51;23.20;52.50
65752;DHT22;52486;51.098;13.770;2024-01-30T09:32:17;24.30;53.00
65752;DHT22;52486;51.098;13.770;2024-01-30T09:34:43;23.10;52.20
65752;DHT22;52486;51.098;13.770;2024-01-30T09:37:09;23.20;52.30
65752;DHT22;52486;51.098;13.770;2024-01-30T09:39:35;23.10;52.40
65752;DHT22;52486;51.098;13.770;2024-01-30T09:45:01;23.30;50.70
65752;DHT22;52486;51.098;13.770;2024-01-30T09:47:27;24.10;53.60
65752;DHT22;52486;51.098;13.770;2024-01-30T09:49:52;25.30;54.40
65752;DHT22;52486;51.098;13.770;2024-01-30T09:52:18;25.20;53.80
65752;DHT22;52486;51.098;13.770;2024-01-30T09:54:44;23.40;52.70
65752;DHT22;52486;51.098;13.770;2024-01-30T09:57:11;23.30;52.00
65752;DHT22;52486;51.098;13.770;2024-01-30T09:59:37;23.30;52.90
65752;DHT22;52486;51.098;13.770;2024-01-30T10:02:03;23.70;50.80
65752;DHT22;52486;51.098;13.770;2024-01-30T10:04:30;23.80;52.90
65752;DHT22;52486;51.098;13.770;2024-01-30T10:06:55;26.80;54.80
65752;DHT22;52486;51.098;13.770;2024-01-30T10:09:21;24.10;52.50
65752;DHT22;52486;51.098;13.770;2024-01-30T10:11:47;26.50;53.90
65752;DHT22;52486;51.098;13.770;2024-01-30T10:14:14;24.00;52.50
65752;DHT22;52486;51.098;13.770;2024-01-30T10:16:39;24.20;52.50
65752;DHT22;52486;51.098;13.770;2024-01-30T10:19:04;24.10;52.40
65752;DHT22;52486;51.098;13.770;2024-01-30T10:21:30;24.80;52.60
65752;DHT22;52486;51.098;13.770;2024-01-30T10:23:57;24.30;52.30
65752;DHT22;52486;51.098;13.770;2024-01-30T10:26:23;24.30;49.50
65752;DHT22;52486;51.098;13.770;2024-01-30T10:28:48;24.60;52.00
65752;DHT22;52486;51.098;13.770;2024-01-30T10:31:17;24.70;51.70
65752;DHT22;52486;51.098;13.770;2024-01-30T10:33:44;24.60;49.10
65752;DHT22;52486;51.098;13.770;2024-01-30T10:36:09;26.90;52.70
65752;DHT22;52486;51.098;13.770;2024-01-30T10:38:38;27.60;53.10
65752;DHT22;52486;51.098;13.770;2024-01-30T10:41:05;25.00;51.10
65752;DHT22;52486;51.098;13.770;2024-01-30T10:43:32;26.70;52.20
65752;DHT22;52486;51.098;13.770;2024-01-30T10:46:01;25.10;51.10
65752;DHT22;52486;51.098;13.770;2024-01-30T10:48:30;25.10;51.10
65752;DHT22;52486;51.098;13.770;2024-01-30T10:50:57;24.50;48.90
65752;DHT22;52486;51.098;13.770;2024-01-30T10:53:24;24.80;52.10
65752;DHT22;52486;51.098;13.770;2024-01-30T10:55:51;21.50;51.80
65752;DHT22;52486;51.098;13.770;2024-01-30T10:58:18;21.60;51.40
65752;DHT22;52486;51.098;13.770;2024-01-30T11:00:44;22.10;51.40
65752;DHT22;52486;51.098;13.770;2024-01-30T11:03:10;22.50;53.80
65752;DHT22;52486;51.098;13.770;2024-01-30T11:05:36;22.60;53.90
65752;DHT22;52486;51.098;13.770;2024-01-30T11:08:14;22.80;54.00
65752;DHT22;52486;51.098;13.770;2024-01-30T11:10:46;23.10;52.40
65752;DHT22;52486;51.098;13.770;2024-01-30T11:13:13;23.30;52.30
65752;DHT22;52486;51.098;13.770;2024-01-30T11:15:38;23.20;53.70
65752;DHT22;52486;51.098;13.770;2024-01-30T11:18:05;25.30;55.50
65752;DHT22;52486;51.098;13.770;2024-01-30T11:20:31;23.30;54.00
65752;DHT22;52486;51.098;13.770;2024-01-30T11:22:57;23.40;54.50
65752;DHT22;52486;51.098;13.770;2024-01-30T11:25:23;23.60;54.80
65752;DHT22;52486;51.098;13.770;2024-01-30T11:27:49;23.60;55.30
65752;DHT22;52486;51.098;13.770;2024-01-30T11:30:24;23.50;55.20
65752;DHT22;52486;51.098;13.770;2024-01-30T11:35:25;23.60;51.90
65752;DHT22;52486;51.098;13.770;2024-01-30T11:37:51;23.80;54.30
65752;DHT22;52486;51.098;13.770;2024-01-30T11:40:16;24.00;53.60
65752;DHT22;52486;51.098;13.770;2024-01-30T11:42:42;25.30;54.70
65752;DHT22;52486;51.098;13.770;2024-01-30T11:45:07;24.40;54.00
65752;DHT22;52486;51.098;13.770;2024-01-30T11:47:34;24.20;53.70
65752;DHT22;52486;51.098;13.770;2024-01-30T11:50:00;24.60;53.60
65752;DHT22;52486;51.098;13.770;2024-01-30T11:52:34;23.90;50.40
65752;DHT22;52486;51.098;13.770;2024-01-30T11:55:00;24.20;53.10
65752;DHT22;52486;51.098;13.770;2024-01-30T11:57:26;24.30;53.20
65752;DHT22;52486;51.098;13.770;2024-01-30T11:59:52;24.40;53.20
65752;DHT22;52486;51.098;13.770;2024-01-30T12:02:17;24.40;53.20
65752;DHT22;52486;51.098;13.770;2024-01-30T12:04:43;24.70;53.30
65752;DHT22;52486;51.098;13.770;2024-01-30T12:07:08;26.10;54.20
65752;DHT22;52486;51.098;13.770;2024-01-30T12:09:34;24.50;53.00
65752;DHT22;52486;51.098;13.770;2024-01-30T12:11:59;24.70;52.30
65752;DHT22;52486;51.098;13.770;2024-01-30T12:14:25;26.60;54.20
65752;DHT22;52486;51.098;13.770;2024-01-30T12:16:51;24.50;52.70
65752;DHT22;52486;51.098;13.770;2024-01-30T12:19:26;24.40;52.70
65752;DHT22;52486;51.098;13.770;2024-01-30T12:21:55;24.80;50.50
65752;DHT22;52486;51.098;13.770;2024-01-30T12:24:21;24.70;49.90
65752;DHT22;52486;51.098;13.770;2024-01-30T12:26:47;26.90;52.10
65752;DHT22;52486;51.098;13.770;2024-01-30T12:29:12;24.30;50.50
65752;DHT22;52486;51.098;13.770;2024-01-30T12:31:41;24.30;50.20
65752;DHT22;52486;51.098;13.770;2024-01-30T12:34:07;25.40;50.40
65752;DHT22;52486;51.098;13.770;2024-01-30T12:36:32;24.10;49.80
65752;DHT22;52486;51.098;13.770;2024-01-30T12:38:59;24.00;49.50
65752;DHT22;52486;51.098;13.770;2024-01-30T12:41:24;25.20;50.60
65752;DHT22;52486;51.098;13.770;2024-01-30T12:43:54;24.20;49.70
65752;DHT22;52486;51.098;13.770;2024-01-30T12:46:19;25.30;51.00
65752;DHT22;52486;51.098;13.770;2024-01-30T12:48:45;25.00;50.60
65752;DHT22;52486;51.098;13.770;2024-01-30T12:51:10;23.20;49.80
65752;DHT22;52486;51.098;13.770;2024-01-30T12:53:36;23.40;50.20
65752;DHT22;52486;51.098;13.770;2024-01-30T12:56:02;24.50;50.40
65752;DHT22;52486;51.098;13.770;2024-01-30T12:58:27;23.50;49.40
65752;DHT22;52486;51.098;13.770;2024-01-30T13:00:53;24.50;50.20
65752;DHT22;52486;51.098;13.770;2024-01-30T13:03:19;22.90;49.20
65752;DHT22;52486;51.098;13.770;2024-01-30T13:05:44;22.80;50.40
65752;DHT22;52486;51.098;13.770;2024-01-30T13:08:10;22.30;50.20
65752;DHT22;52486;51.098;13.770;2024-01-30T13:10:35;21.70;51.70
65752;DHT22;52486;51.098;13.770;2024-01-30T13:13:01;25.00;53.50
65752;DHT22;52486;51.098;13.770;2024-01-30T13:15:26;21.90;53.80
65752;DHT22;52486;51.098;13.770;2024-01-30T13:17:52;21.80;53.30
65752;DHT22;52486;51.098;13.770;2024-01-30T13:20:19;24.70;55.10
65752;DHT22;52486;51.098;13.770;2024-01-30T13:22:48;23.10;55.20
65752;DHT22;52486;51.098;13.770;2024-01-30T13:25:17;22.40;52.60
65752;DHT22;52486;51.098;13.770;2024-01-30T13:27:43;22.60;54.90
65752;DHT22;52486;51.098;13.770;2024-01-30T13:30:08;24.20;55.50
65752;DHT22;52486;51.098;13.770;2024-01-30T13:32:36;23.10;54.00
65752;DHT22;52486;51.098;13.770;2024-01-30T13:35:02;23.20;54.30
65752;DHT22;52486;51.098;13.770;2024-01-30T13:37:28;23.30;54.70
65752;DHT22;52486;51.098;13.770;2024-01-30T13:39:53;23.40;54.90
65752;DHT22;52486;51.098;13.770;2024-01-30T13:42:19;23.40;54.20
65752;DHT22;52486;51.098;13.770;2024-01-30T13:44:44;26.70;56.10
65752;DHT22;52486;51.098;13.770;2024-01-30T13:47:10;23.50;54.10
65752;DHT22;52486;51.098;13.770;2024-01-30T13:49:35;23.70;55.00
65752;DHT22;52486;51.098;13.770;2024-01-30T13:52:01;23.90;55.50
65752;DHT22;52486;51.098;13.770;2024-01-30T13:54:28;23.70;55.40
65752;DHT22;52486;51.098;13.770;2024-01-30T13:56:53;23.80;55.40
65752;DHT22;52486;51.098;13.770;2024-01-30T13:59:19;23.90;55.20
65752;DHT22;52486;51.098;13.770;2024-01-30T14:01:50;23.60;55.30
65752;DHT22;52486;51.098;13.770;2024-01-30T14:04:16;23.70;55.50
65752;DHT22;52486;51.098;13.770;2024-01-30T14:06:42;23.70;55.30
65752;DHT22;52486;51.098;13.770;2024-01-30T14:09:07;23.90;55.30
65752;DHT22;52486;51.098;13.770;2024-01-30T14:11:33;23.90;56.10
65752;DHT22;52486;51.098;13.770;2024-01-30T14:13:58;24.10;55.70
65752;DHT22;52486;51.098;13.770;2024-01-30T14:16:24;23.90;56.10
65752;DHT22;52486;51.098;13.770;2024-01-30T14:18:50;23.80;56.20
65752;DHT22;52486;51.098;13.770;2024-01-30T14:21:15;24.10;56.10
65752;DHT22;52486;51.098;13.770;2024-01-30T14:23:41;24.80;56.60
65752;DHT22;52486;51.098;13.770;2024-01-30T14:26:06;24.20;56.40
65752;DHT22;52486;51.098;13.770;2024-01-30T14:28:32;24.20;56.70
65752;DHT22;52486;51.098;13.770;2024-01-30T14:30:57;24.10;56.40
65752;DHT22;52486;51.098;13.770;2024-01-30T14:33:23;24.10;56.50
65752;DHT22;52486;51.098;13.770;2024-01-30T14:35:48;23.80;56.10
65752;DHT22;52486;51.098;13.770;2024-01-30T14:38:14;24.00;56.30
65752;DHT22;52486;51.098;13.770;2024-01-30T14:40:41;23.90;56.20
65752;DHT22;52486;51.098;13.770;2024-01-30T14:43:06;24.30;56.40
65752;DHT22;52486;51.098;13.770;2024-01-30T14:45:32;24.30;56.50
65752;DHT22;52486;51.098;13.770;2024-01-30T14:47:58;24.10;56.00
65752;DHT22;52486;51.098;13.770;2024-01-30T14:50:24;24.40;55.80
65752;DHT22;52486;51.098;13.770;2024-01-30T14:52:49;25.40;56.30
65752;DHT22;52486;51.098;13.770;2024-01-30T14:55:15;24.30;55.50
65752;DHT22;52486;51.098;13.770;2024-01-30T14:57:40;24.50;55.40
65752;DHT22;52486;51.098;13.770;2024-01-30T15:00:07;24.30;54.90
65752;DHT22;52486;51.098;13.770;2024-01-30T15:02:34;24.50;54.50
65752;DHT22;52486;51.098;13.770;2024-01-30T15:05:00;24.50;54.80
65752;DHT22;52486;51.098;13.770;2024-01-30T15:07:26;24.50;54.90
65752;DHT22;52486;51.098;13.770;2024-01-30T15:09:52;25.30;55.10
65752;DHT22;52486;51.098;13.770;2024-01-30T15:12:18;24.70;54.90